Elsdon, Illinois
Current Conditions -  °F | °C
As of 1:53 AM on Monday 24 Nov 2014 (Local Time) from KMDW Reporting Station
Light Rain Light Rain  
Wind Chill: 51°   Ceiling: 500
Heat Index: 51°   Visibility: 8mi
Dew Point: 50°   Wind: 10mph
Humidity: 96%   Direction: 250°WSW
Pressure: 29.08"   Gusts: NA
Location:  41.8105°N, 87.7117°W
Report Text: KMDW 240753Z 25009KT 8SM -RA OVC005 11/10 A2908 RMK AO2 SLP848 P0002 T01060100
Loading
Personal Weather Stations






























Interactive Weather Map New forecast layout! Learn more

10-Day Weather Forecast

Advertisements
Track Severe Weather on mobile